sensor_id;sensor_type;location;lat;lon;timestamp;pressure;altitude;pressure_sealevel;temperature;humidity
25944;BME280;13742;49.306;8.636;2023-03-05T00:00:17;100931.00;;;4.43;79.57
25944;BME280;13742;49.306;8.636;2023-03-05T00:01:18;100928.98;;;4.43;79.79
25944;BME280;13742;49.306;8.636;2023-03-05T00:02:17;100929.64;;;4.43;79.96
25944;BME280;13742;49.306;8.636;2023-03-05T00:03:17;100928.38;;;4.43;80.01
25944;BME280;13742;49.306;8.636;2023-03-05T00:04:17;100929.81;;;4.43;79.92
25944;BME280;13742;49.306;8.636;2023-03-05T00:05:17;100930.30;;;4.43;79.85
25944;BME280;13742;49.306;8.636;2023-03-05T00:06:18;100931.56;;;4.44;79.82
25944;BME280;13742;49.306;8.636;2023-03-05T00:07:17;100932.22;;;4.44;79.63
25944;BME280;13742;49.306;8.636;2023-03-05T00:08:17;100932.22;;;4.44;79.27
25944;BME280;13742;49.306;8.636;2023-03-05T00:09:17;100930.46;;;4.43;79.03
25944;BME280;13742;49.306;8.636;2023-03-05T00:10:17;100932.10;;;4.43;79.44
25944;BME280;13742;49.306;8.636;2023-03-05T00:11:17;100930.34;;;4.42;79.61
25944;BME280;13742;49.306;8.636;2023-03-05T00:12:17;100929.27;;;4.43;79.81
25944;BME280;13742;49.306;8.636;2023-03-05T00:13:17;100927.78;;;4.41;79.36
25944;BME280;13742;49.306;8.636;2023-03-05T00:14:17;100925.70;;;4.41;79.61
25944;BME280;13742;49.306;8.636;2023-03-05T00:15:17;100929.49;;;4.42;79.59
25944;BME280;13742;49.306;8.636;2023-03-05T00:16:17;100925.45;;;4.42;79.82
25944;BME280;13742;49.306;8.636;2023-03-05T00:17:17;100926.55;;;4.42;80.14
25944;BME280;13742;49.306;8.636;2023-03-05T00:18:17;100925.52;;;4.43;80.04
25944;BME280;13742;49.306;8.636;2023-03-05T00:19:17;100924.41;;;4.43;80.27
25944;BME280;13742;49.306;8.636;2023-03-05T00:20:17;100923.64;;;4.42;80.14
25944;BME280;13742;49.306;8.636;2023-03-05T00:22:17;100920.82;;;4.43;80.04
25944;BME280;13742;49.306;8.636;2023-03-05T00:23:17;100920.72;;;4.44;80.00
25944;BME280;13742;49.306;8.636;2023-03-05T00:24:17;100920.31;;;4.44;80.05
25944;BME280;13742;49.306;8.636;2023-03-05T00:25:17;100918.69;;;4.43;79.69
25944;BME280;13742;49.306;8.636;2023-03-05T00:26:20;100918.47;;;4.44;79.94
25944;BME280;13742;49.306;8.636;2023-03-05T00:27:17;100919.34;;;4.43;79.79
25944;BME280;13742;49.306;8.636;2023-03-05T00:28:17;100918.16;;;4.44;79.77
25944;BME280;13742;49.306;8.636;2023-03-05T00:29:18;100919.25;;;4.44;79.73
25944;BME280;13742;49.306;8.636;2023-03-05T00:30:17;100916.77;;;4.43;79.77
25944;BME280;13742;49.306;8.636;2023-03-05T00:31:19;100915.25;;;4.44;79.81
25944;BME280;13742;49.306;8.636;2023-03-05T00:32:17;100915.05;;;4.44;79.62
25944;BME280;13742;49.306;8.636;2023-03-05T00:33:17;100917.45;;;4.44;79.73
25944;BME280;13742;49.306;8.636;2023-03-05T00:34:17;100918.19;;;4.44;79.60
25944;BME280;13742;49.306;8.636;2023-03-05T00:35:17;100919.25;;;4.45;79.42
25944;BME280;13742;49.306;8.636;2023-03-05T00:36:17;100915.32;;;4.45;79.54
25944;BME280;13742;49.306;8.636;2023-03-05T00:37:17;100914.66;;;4.45;79.63
25944;BME280;13742;49.306;8.636;2023-03-05T00:38:17;100914.08;;;4.46;79.74
25944;BME280;13742;49.306;8.636;2023-03-05T00:39:17;100914.00;;;4.45;79.64
25944;BME280;13742;49.306;8.636;2023-03-05T00:40:17;100913.39;;;4.45;79.40
25944;BME280;13742;49.306;8.636;2023-03-05T00:41:17;100913.30;;;4.46;79.87
25944;BME280;13742;49.306;8.636;2023-03-05T00:42:17;100917.05;;;4.48;79.95
25944;BME280;13742;49.306;8.636;2023-03-05T00:43:17;100911.95;;;4.47;79.43
25944;BME280;13742;49.306;8.636;2023-03-05T00:44:17;100912.10;;;4.47;79.67
25944;BME280;13742;49.306;8.636;2023-03-05T00:45:17;100912.43;;;4.47;79.81
25944;BME280;13742;49.306;8.636;2023-03-05T00:46:17;100910.89;;;4.46;79.60
25944;BME280;13742;49.306;8.636;2023-03-05T00:47:17;100911.08;;;4.48;79.94
25944;BME280;13742;49.306;8.636;2023-03-05T00:48:17;100910.75;;;4.48;79.70
25944;BME280;13742;49.306;8.636;2023-03-05T00:49:17;100906.30;;;4.47;79.51
25944;BME280;13742;49.306;8.636;2023-03-05T00:50:17;100910.39;;;4.47;79.56
25944;BME280;13742;49.306;8.636;2023-03-05T00:51:17;100905.94;;;4.46;79.29
25944;BME280;13742;49.306;8.636;2023-03-05T00:52:17;100905.40;;;4.47;79.27
25944;BME280;13742;49.306;8.636;2023-03-05T00:53:17;100905.91;;;4.46;79.03
25944;BME280;13742;49.306;8.636;2023-03-05T00:54:17;100904.09;;;4.47;78.92
25944;BME280;13742;49.306;8.636;2023-03-05T00:55:17;100905.66;;;4.46;78.88
25944;BME280;13742;49.306;8.636;2023-03-05T00:56:17;100904.56;;;4.45;78.67
25944;BME280;13742;49.306;8.636;2023-03-05T00:57:17;100903.38;;;4.46;78.98
25944;BME280;13742;49.306;8.636;2023-03-05T00:58:17;100900.42;;;4.46;78.72
25944;BME280;13742;49.306;8.636;2023-03-05T00:59:17;100901.00;;;4.46;78.63
25944;BME280;13742;49.306;8.636;2023-03-05T01:00:17;100899.36;;;4.46;78.66
25944;BME280;13742;49.306;8.636;2023-03-05T01:01:17;100898.14;;;4.45;78.98
25944;BME280;13742;49.306;8.636;2023-03-05T01:02:17;100896.09;;;4.46;79.01
25944;BME280;13742;49.306;8.636;2023-03-05T01:03:17;100896.02;;;4.46;78.88
25944;BME280;13742;49.306;8.636;2023-03-05T01:04:17;100893.84;;;4.46;78.68
25944;BME280;13742;49.306;8.636;2023-03-05T01:05:17;100895.36;;;4.46;79.28
25944;BME280;13742;49.306;8.636;2023-03-05T01:06:17;100894.22;;;4.46;79.38
25944;BME280;13742;49.306;8.636;2023-03-05T01:07:17;100894.07;;;4.48;80.22
25944;BME280;13742;49.306;8.636;2023-03-05T01:08:17;100894.39;;;4.48;80.30
25944;BME280;13742;49.306;8.636;2023-03-05T01:09:17;100890.73;;;4.47;80.31
25944;BME280;13742;49.306;8.636;2023-03-05T01:10:17;100888.77;;;4.46;79.60
25944;BME280;13742;49.306;8.636;2023-03-05T01:11:17;100888.24;;;4.46;79.67
25944;BME280;13742;49.306;8.636;2023-03-05T01:12:17;100886.38;;;4.45;79.68
25944;BME280;13742;49.306;8.636;2023-03-05T01:13:17;100886.86;;;4.45;79.58
25944;BME280;13742;49.306;8.636;2023-03-05T01:14:17;100880.78;;;4.45;79.60
25944;BME280;13742;49.306;8.636;2023-03-05T01:15:17;100878.91;;;4.44;79.56
25944;BME280;13742;49.306;8.636;2023-03-05T01:16:17;100878.11;;;4.43;79.49
25944;BME280;13742;49.306;8.636;2023-03-05T01:17:17;100879.41;;;4.43;79.14
25944;BME280;13742;49.306;8.636;2023-03-05T01:18:17;100879.13;;;4.43;79.04
25944;BME280;13742;49.306;8.636;2023-03-05T01:19:17;100880.92;;;4.43;79.09
25944;BME280;13742;49.306;8.636;2023-03-05T01:20:17;100875.27;;;4.41;79.08
25944;BME280;13742;49.306;8.636;2023-03-05T01:21:17;100872.95;;;4.40;79.01
25944;BME280;13742;49.306;8.636;2023-03-05T01:22:17;100875.48;;;4.40;79.00
25944;BME280;13742;49.306;8.636;2023-03-05T01:23:17;100873.89;;;4.40;79.00
25944;BME280;13742;49.306;8.636;2023-03-05T01:24:17;100870.46;;;4.40;79.42
25944;BME280;13742;49.306;8.636;2023-03-05T01:25:17;100870.25;;;4.40;79.14
25944;BME280;13742;49.306;8.636;2023-03-05T01:26:17;100868.17;;;4.40;79.32
25944;BME280;13742;49.306;8.636;2023-03-05T01:27:17;100867.45;;;4.39;79.12
25944;BME280;13742;49.306;8.636;2023-03-05T01:28:17;100864.75;;;4.39;78.95
25944;BME280;13742;49.306;8.636;2023-03-05T01:29:17;100863.36;;;4.39;79.31
25944;BME280;13742;49.306;8.636;2023-03-05T01:30:17;100864.91;;;4.39;79.18
25944;BME280;13742;49.306;8.636;2023-03-05T01:31:17;100866.63;;;4.39;79.30
25944;BME280;13742;49.306;8.636;2023-03-05T01:32:17;100862.66;;;4.39;79.17
25944;BME280;13742;49.306;8.636;2023-03-05T01:33:17;100861.03;;;4.39;78.93
25944;BME280;13742;49.306;8.636;2023-03-05T01:34:17;100860.17;;;4.39;78.96
25944;BME280;13742;49.306;8.636;2023-03-05T01:35:18;100858.09;;;4.39;79.00
25944;BME280;13742;49.306;8.636;2023-03-05T01:36:17;100855.97;;;4.39;78.66
25944;BME280;13742;49.306;8.636;2023-03-05T01:37:17;100858.42;;;4.38;78.79
25944;BME280;13742;49.306;8.636;2023-03-05T01:38:17;100854.33;;;4.39;78.83
25944;BME280;13742;49.306;8.636;2023-03-05T01:39:17;100848.88;;;4.37;79.09
25944;BME280;13742;49.306;8.636;2023-03-05T01:40:22;100852.91;;;4.38;78.96
25944;BME280;13742;49.306;8.636;2023-03-05T01:41:17;100851.49;;;4.37;78.73
25944;BME280;13742;49.306;8.636;2023-03-05T01:42:18;100850.95;;;4.37;78.63
25944;BME280;13742;49.306;8.636;2023-03-05T01:44:20;100848.39;;;4.36;78.66
25944;BME280;13742;49.306;8.636;2023-03-05T01:45:17;100848.89;;;4.36;78.56
25944;BME280;13742;49.306;8.636;2023-03-05T01:47:17;100849.86;;;4.36;78.58
25944;BME280;13742;49.306;8.636;2023-03-05T01:48:17;100846.77;;;4.35;78.60
25944;BME280;13742;49.306;8.636;2023-03-05T01:49:22;100846.36;;;4.36;78.66
25944;BME280;13742;49.306;8.636;2023-03-05T01:50:18;100841.95;;;4.35;78.48
25944;BME280;13742;49.306;8.636;2023-03-05T01:51:17;100844.89;;;4.36;78.84
25944;BME280;13742;49.306;8.636;2023-03-05T01:52:18;100850.03;;;4.35;78.52
25944;BME280;13742;49.306;8.636;2023-03-05T01:53:17;100844.86;;;4.34;78.19
25944;BME280;13742;49.306;8.636;2023-03-05T01:54:18;100844.95;;;4.34;78.24
25944;BME280;13742;49.306;8.636;2023-03-05T01:55:18;100844.67;;;4.34;78.15
25944;BME280;13742;49.306;8.636;2023-03-05T01:56:17;100846.05;;;4.33;78.05
25944;BME280;13742;49.306;8.636;2023-03-05T01:57:19;100849.22;;;4.32;77.98
25944;BME280;13742;49.306;8.636;2023-03-05T01:58:17;100847.02;;;4.33;78.30
25944;BME280;13742;49.306;8.636;2023-03-05T01:59:17;100843.36;;;4.31;78.39
25944;BME280;13742;49.306;8.636;2023-03-05T02:00:59;100848.78;;;4.31;78.40
25944;BME280;13742;49.306;8.636;2023-03-05T02:01:17;100846.53;;;4.31;78.47
25944;BME280;13742;49.306;8.636;2023-03-05T02:02:17;100849.64;;;4.31;78.56
25944;BME280;13742;49.306;8.636;2023-03-05T02:03:17;100845.59;;;4.31;78.36
25944;BME280;13742;49.306;8.636;2023-03-05T02:04:17;100844.15;;;4.32;78.48
25944;BME280;13742;49.306;8.636;2023-03-05T02:05:19;100842.66;;;4.31;78.53
25944;BME280;13742;49.306;8.636;2023-03-05T02:06:17;100843.10;;;4.31;78.41
25944;BME280;13742;49.306;8.636;2023-03-05T02:07:17;100845.22;;;4.31;78.42
25944;BME280;13742;49.306;8.636;2023-03-05T02:08:18;100843.84;;;4.31;78.16
25944;BME280;13742;49.306;8.636;2023-03-05T02:09:18;100841.80;;;4.31;78.42
25944;BME280;13742;49.306;8.636;2023-03-05T02:10:18;100840.61;;;4.31;78.55
25944;BME280;13742;49.306;8.636;2023-03-05T02:11:17;100839.76;;;4.31;78.69
25944;BME280;13742;49.306;8.636;2023-03-05T02:12:17;100834.97;;;4.31;78.76
25944;BME280;13742;49.306;8.636;2023-03-05T02:13:21;100838.36;;;4.31;78.54
25944;BME280;13742;49.306;8.636;2023-03-05T02:14:17;100839.17;;;4.31;78.58
25944;BME280;13742;49.306;8.636;2023-03-05T02:15:17;100841.47;;;4.31;78.66
25944;BME280;13742;49.306;8.636;2023-03-05T02:16:17;100835.43;;;4.30;78.61
25944;BME280;13742;49.306;8.636;2023-03-05T02:17:17;100832.70;;;4.30;78.59
25944;BME280;13742;49.306;8.636;2023-03-05T02:18:17;100832.05;;;4.29;78.58
25944;BME280;13742;49.306;8.636;2023-03-05T02:19:17;100833.02;;;4.30;78.53
25944;BME280;13742;49.306;8.636;2023-03-05T02:20:18;100830.37;;;4.30;78.29
25944;BME280;13742;49.306;8.636;2023-03-05T02:21:26;100828.81;;;4.30;78.41
25944;BME280;13742;49.306;8.636;2023-03-05T02:22:17;100830.04;;;4.30;78.24
25944;BME280;13742;49.306;8.636;2023-03-05T02:23:17;100823.86;;;4.28;77.98
25944;BME280;13742;49.306;8.636;2023-03-05T02:25:18;100824.96;;;4.27;78.17
25944;BME280;13742;49.306;8.636;2023-03-05T02:26:17;100824.52;;;4.27;78.21
25944;BME280;13742;49.306;8.636;2023-03-05T02:27:17;100825.33;;;4.27;78.22
25944;BME280;13742;49.306;8.636;2023-03-05T02:28:39;100824.09;;;4.28;78.20
25944;BME280;13742;49.306;8.636;2023-03-05T02:29:17;100821.30;;;4.27;78.23
25944;BME280;13742;49.306;8.636;2023-03-05T02:30:17;100819.88;;;4.26;78.17
25944;BME280;13742;49.306;8.636;2023-03-05T02:31:18;100821.27;;;4.26;78.29
25944;BME280;13742;49.306;8.636;2023-03-05T02:32:17;100819.30;;;4.26;78.23
25944;BME280;13742;49.306;8.636;2023-03-05T02:33:17;100819.68;;;4.25;78.15
25944;BME280;13742;49.306;8.636;2023-03-05T02:34:17;100817.39;;;4.25;78.06
25944;BME280;13742;49.306;8.636;2023-03-05T02:35:17;100814.80;;;4.23;78.13
25944;BME280;13742;49.306;8.636;2023-03-05T02:36:17;100816.51;;;4.20;78.26
25944;BME280;13742;49.306;8.636;2023-03-05T02:37:17;100818.92;;;4.20;78.05
25944;BME280;13742;49.306;8.636;2023-03-05T02:38:17;100814.72;;;4.20;78.12
25944;BME280;13742;49.306;8.636;2023-03-05T02:39:17;100811.75;;;4.18;78.12
25944;BME280;13742;49.306;8.636;2023-03-05T02:40:17;100818.70;;;4.18;78.31
25944;BME280;13742;49.306;8.636;2023-03-05T02:41:17;100811.72;;;4.18;78.31
25944;BME280;13742;49.306;8.636;2023-03-05T02:46:47;100812.05;;;4.14;78.54
25944;BME280;13742;49.306;8.636;2023-03-05T02:47:17;100809.38;;;4.12;78.49
25944;BME280;13742;49.306;8.636;2023-03-05T02:48:17;100806.47;;;4.12;78.50
25944;BME280;13742;49.306;8.636;2023-03-05T02:49:17;100808.11;;;4.12;78.72
25944;BME280;13742;49.306;8.636;2023-03-05T02:50:17;100799.90;;;4.12;78.86
25944;BME280;13742;49.306;8.636;2023-03-05T02:51:17;100796.78;;;4.13;78.70
25944;BME280;13742;49.306;8.636;2023-03-05T02:52:17;100798.38;;;4.12;78.59
25944;BME280;13742;49.306;8.636;2023-03-05T02:53:17;100797.60;;;4.13;78.69
25944;BME280;13742;49.306;8.636;2023-03-05T02:54:17;100799.08;;;4.13;78.79
25944;BME280;13742;49.306;8.636;2023-03-05T02:55:17;100798.73;;;4.13;78.78
25944;BME280;13742;49.306;8.636;2023-03-05T02:56:17;100796.57;;;4.14;78.74
25944;BME280;13742;49.306;8.636;2023-03-05T02:57:17;100796.42;;;4.12;78.71
25944;BME280;13742;49.306;8.636;2023-03-05T02:58:17;100796.57;;;4.14;79.05
25944;BME280;13742;49.306;8.636;2023-03-05T02:59:17;100793.40;;;4.12;78.55
25944;BME280;13742;49.306;8.636;2023-03-05T03:00:17;100793.52;;;4.13;78.52
25944;BME280;13742;49.306;8.636;2023-03-05T03:01:17;100797.76;;;4.13;78.46
25944;BME280;13742;49.306;8.636;2023-03-05T03:02:17;100790.19;;;4.11;78.46
25944;BME280;13742;49.306;8.636;2023-03-05T03:03:17;100788.66;;;4.12;78.49
25944;BME280;13742;49.306;8.636;2023-03-05T03:04:17;100791.95;;;4.13;78.39
25944;BME280;13742;49.306;8.636;2023-03-05T03:05:17;100789.98;;;4.14;78.41
25944;BME280;13742;49.306;8.636;2023-03-05T03:06:17;100785.66;;;4.13;79.22
25944;BME280;13742;49.306;8.636;2023-03-05T03:07:17;100789.66;;;4.14;78.85
25944;BME280;13742;49.306;8.636;2023-03-05T03:08:17;100786.92;;;4.14;78.61
25944;BME280;13742;49.306;8.636;2023-03-05T03:09:17;100784.00;;;4.12;78.40
25944;BME280;13742;49.306;8.636;2023-03-05T03:10:17;100781.16;;;4.12;78.60
25944;BME280;13742;49.306;8.636;2023-03-05T03:11:17;100780.29;;;4.12;78.81
25944;BME280;13742;49.306;8.636;2023-03-05T03:12:17;100780.33;;;4.12;78.78
25944;BME280;13742;49.306;8.636;2023-03-05T03:13:17;100780.13;;;4.12;78.60
25944;BME280;13742;49.306;8.636;2023-03-05T03:14:17;100781.39;;;4.12;78.81
25944;BME280;13742;49.306;8.636;2023-03-05T03:15:17;100776.86;;;4.12;78.76
25944;BME280;13742;49.306;8.636;2023-03-05T03:16:17;100777.39;;;4.12;78.89
25944;BME280;13742;49.306;8.636;2023-03-05T03:17:17;100775.05;;;4.10;79.00
25944;BME280;13742;49.306;8.636;2023-03-05T03:18:17;100774.23;;;4.10;79.17
25944;BME280;13742;49.306;8.636;2023-03-05T03:19:17;100771.98;;;4.09;79.39
25944;BME280;13742;49.306;8.636;2023-03-05T03:20:17;100771.50;;;4.09;79.21
25944;BME280;13742;49.306;8.636;2023-03-05T03:21:21;100768.72;;;4.09;78.78
25944;BME280;13742;49.306;8.636;2023-03-05T03:22:17;100766.78;;;4.08;78.62
25944;BME280;13742;49.306;8.636;2023-03-05T03:23:17;100766.89;;;4.08;78.76
25944;BME280;13742;49.306;8.636;2023-03-05T03:24:17;100766.87;;;4.07;78.98
25944;BME280;13742;49.306;8.636;2023-03-05T03:25:18;100766.61;;;4.09;78.93
25944;BME280;13742;49.306;8.636;2023-03-05T03:26:17;100767.60;;;4.10;78.97
25944;BME280;13742;49.306;8.636;2023-03-05T03:27:17;100766.02;;;4.10;79.29
25944;BME280;13742;49.306;8.636;2023-03-05T03:28:17;100762.81;;;4.11;79.74
25944;BME280;13742;49.306;8.636;2023-03-05T03:29:17;100762.91;;;4.11;79.69
25944;BME280;13742;49.306;8.636;2023-03-05T03:30:17;100760.13;;;4.11;79.87
25944;BME280;13742;49.306;8.636;2023-03-05T03:31:17;100757.23;;;4.10;80.06
25944;BME280;13742;49.306;8.636;2023-03-05T03:32:17;100760.58;;;4.10;80.01
25944;BME280;13742;49.306;8.636;2023-03-05T03:33:17;100760.06;;;4.09;79.46
25944;BME280;13742;49.306;8.636;2023-03-05T03:34:17;100761.66;;;4.09;79.23
25944;BME280;13742;49.306;8.636;2023-03-05T03:35:17;100757.02;;;4.08;79.24
25944;BME280;13742;49.306;8.636;2023-03-05T03:36:17;100757.25;;;4.08;79.84
25944;BME280;13742;49.306;8.636;2023-03-05T03:37:17;100755.78;;;4.08;80.22
25944;BME280;13742;49.306;8.636;2023-03-05T03:38:17;100755.63;;;4.08;80.63
25944;BME280;13742;49.306;8.636;2023-03-05T03:39:17;100756.14;;;4.06;80.57
25944;BME280;13742;49.306;8.636;2023-03-05T03:40:17;100754.47;;;4.05;80.47
25944;BME280;13742;49.306;8.636;2023-03-05T03:41:17;100757.74;;;4.05;80.28
25944;BME280;13742;49.306;8.636;2023-03-05T03:42:17;100755.02;;;4.04;80.06
25944;BME280;13742;49.306;8.636;2023-03-05T03:43:17;100751.84;;;4.04;79.69
25944;BME280;13742;49.306;8.636;2023-03-05T03:44:18;100752.23;;;4.04;79.86
25944;BME280;13742;49.306;8.636;2023-03-05T03:45:17;100748.90;;;4.04;80.15
25944;BME280;13742;49.306;8.636;2023-03-05T03:46:17;100748.63;;;4.03;80.07
25944;BME280;13742;49.306;8.636;2023-03-05T03:47:17;100749.36;;;4.02;79.82
25944;BME280;13742;49.306;8.636;2023-03-05T03:48:17;100748.95;;;4.03;79.72
25944;BME280;13742;49.306;8.636;2023-03-05T03:49:21;100748.14;;;4.03;80.04
25944;BME280;13742;49.306;8.636;2023-03-05T03:50:17;100747.59;;;4.04;80.16
25944;BME280;13742;49.306;8.636;2023-03-05T03:51:17;100746.91;;;4.03;80.11
25944;BME280;13742;49.306;8.636;2023-03-05T03:52:17;100747.45;;;4.02;79.62
25944;BME280;13742;49.306;8.636;2023-03-05T03:53:17;100748.25;;;4.01;79.44
25944;BME280;13742;49.306;8.636;2023-03-05T03:54:17;100747.75;;;4.01;79.61
25944;BME280;13742;49.306;8.636;2023-03-05T03:55:17;100746.13;;;4.01;79.61
25944;BME280;13742;49.306;8.636;2023-03-05T03:56:17;100748.57;;;4.01;80.43
25944;BME280;13742;49.306;8.636;2023-03-05T03:57:17;100743.20;;;4.01;80.50
25944;BME280;13742;49.306;8.636;2023-03-05T03:58:17;100745.65;;;4.02;80.29
25944;BME280;13742;49.306;8.636;2023-03-05T03:59:17;100745.16;;;4.02;80.45
25944;BME280;13742;49.306;8.636;2023-03-05T04:00:17;100746.63;;;4.02;80.21
25944;BME280;13742;49.306;8.636;2023-03-05T04:01:17;100743.25;;;4.01;80.58
25944;BME280;13742;49.306;8.636;2023-03-05T04:02:17;100747.78;;;4.01;80.10
25944;BME280;13742;49.306;8.636;2023-03-05T04:03:17;100743.74;;;4.01;79.97
25944;BME280;13742;49.306;8.636;2023-03-05T04:04:17;100745.42;;;4.01;80.07
25944;BME280;13742;49.306;8.636;2023-03-05T04:05:17;100744.30;;;4.02;80.44
25944;BME280;13742;49.306;8.636;2023-03-05T04:06:17;100743.85;;;4.02;79.91
25944;BME280;13742;49.306;8.636;2023-03-05T04:07:17;100743.40;;;4.03;80.22
25944;BME280;13742;49.306;8.636;2023-03-05T04:08:16;100742.83;;;4.02;80.08
25944;BME280;13742;49.306;8.636;2023-03-05T04:09:17;100744.73;;;4.03;80.36
25944;BME280;13742;49.306;8.636;2023-03-05T04:10:17;100741.50;;;4.04;79.94
25944;BME280;13742;49.306;8.636;2023-03-05T04:11:18;100742.03;;;4.04;79.84
25944;BME280;13742;49.306;8.636;2023-03-05T04:12:17;100739.00;;;4.04;79.64
25944;BME280;13742;49.306;8.636;2023-03-05T04:13:16;100735.13;;;4.04;79.91
25944;BME280;13742;49.306;8.636;2023-03-05T04:14:16;100733.23;;;4.04;80.20
25944;BME280;13742;49.306;8.636;2023-03-05T04:15:17;100733.00;;;4.05;80.15
25944;BME280;13742;49.306;8.636;2023-03-05T04:16:18;100734.91;;;4.05;80.10
25944;BME280;13742;49.306;8.636;2023-03-05T04:17:16;100733.23;;;4.04;80.05
25944;BME280;13742;49.306;8.636;2023-03-05T04:18:16;100736.70;;;4.06;80.01
25944;BME280;13742;49.306;8.636;2023-03-05T04:19:16;100734.38;;;4.05;79.79
25944;BME280;13742;49.306;8.636;2023-03-05T04:20:16;100733.39;;;4.06;80.01
25944;BME280;13742;49.306;8.636;2023-03-05T04:21:17;100733.70;;;4.07;80.05
25944;BME280;13742;49.306;8.636;2023-03-05T04:22:17;100732.23;;;4.07;79.96
25944;BME280;13742;49.306;8.636;2023-03-05T04:23:17;100736.05;;;4.06;80.18
25944;BME280;13742;49.306;8.636;2023-03-05T04:24:16;100732.41;;;4.07;80.30
25944;BME280;13742;49.306;8.636;2023-03-05T04:25:16;100733.56;;;4.05;80.31
25944;BME280;13742;49.306;8.636;2023-03-05T04:26:16;100735.02;;;4.04;80.18
25944;BME280;13742;49.306;8.636;2023-03-05T04:27:16;100736.09;;;4.02;80.44
25944;BME280;13742;49.306;8.636;2023-03-05T04:28:16;100737.41;;;4.02;80.48
25944;BME280;13742;49.306;8.636;2023-03-05T04:29:17;100737.05;;;4.01;80.16
25944;BME280;13742;49.306;8.636;2023-03-05T04:30:16;100737.16;;;4.01;79.87
25944;BME280;13742;49.306;8.636;2023-03-05T04:31:16;100737.20;;;4.01;79.69
25944;BME280;13742;49.306;8.636;2023-03-05T04:32:22;100734.27;;;4.00;79.69
25944;BME280;13742;49.306;8.636;2023-03-05T04:33:17;100733.38;;;4.00;79.59
25944;BME280;13742;49.306;8.636;2023-03-05T04:34:16;100734.46;;;3.99;79.38
25944;BME280;13742;49.306;8.636;2023-03-05T04:35:17;100730.83;;;3.99;79.28
25944;BME280;13742;49.306;8.636;2023-03-05T04:36:16;100732.67;;;3.99;79.43
25944;BME280;13742;49.306;8.636;2023-03-05T04:37:16;100731.11;;;3.98;79.39
25944;BME280;13742;49.306;8.636;2023-03-05T04:38:16;100731.28;;;3.98;79.54
25944;BME280;13742;49.306;8.636;2023-03-05T04:39:19;100732.09;;;3.98;79.68
25944;BME280;13742;49.306;8.636;2023-03-05T04:40:17;100732.09;;;3.98;79.57
25944;BME280;13742;49.306;8.636;2023-03-05T04:41:16;100729.98;;;3.98;79.42
25944;BME280;13742;49.306;8.636;2023-03-05T04:42:18;100730.02;;;3.98;79.43
25944;BME280;13742;49.306;8.636;2023-03-05T04:43:16;100731.37;;;3.98;79.41
25944;BME280;13742;49.306;8.636;2023-03-05T04:44:16;100727.41;;;3.98;79.47
25944;BME280;13742;49.306;8.636;2023-03-05T04:45:16;100726.91;;;3.99;79.51
25944;BME280;13742;49.306;8.636;2023-03-05T04:46:16;100727.34;;;3.99;79.61
25944;BME280;13742;49.306;8.636;2023-03-05T04:47:17;100727.88;;;3.99;79.44
25944;BME280;13742;49.306;8.636;2023-03-05T04:48:17;100727.52;;;3.99;79.37
25944;BME280;13742;49.306;8.636;2023-03-05T04:49:16;100723.70;;;4.00;79.37
25944;BME280;13742;49.306;8.636;2023-03-05T04:50:16;100726.42;;;4.01;79.45
25944;BME280;13742;49.306;8.636;2023-03-05T04:51:16;100724.34;;;4.01;79.54
25944;BME280;13742;49.306;8.636;2023-03-05T04:52:17;100723.81;;;4.01;79.35
25944;BME280;13742;49.306;8.636;2023-03-05T04:53:16;100723.92;;;4.01;79.43
25944;BME280;13742;49.306;8.636;2023-03-05T04:54:16;100720.50;;;4.01;79.22
25944;BME280;13742;49.306;8.636;2023-03-05T04:55:17;100718.84;;;4.01;79.08
25944;BME280;13742;49.306;8.636;2023-03-05T04:56:16;100721.13;;;4.01;79.48
25944;BME280;13742;49.306;8.636;2023-03-05T04:57:16;100718.14;;;4.00;79.43
25944;BME280;13742;49.306;8.636;2023-03-05T04:58:16;100720.20;;;4.00;79.60
25944;BME280;13742;49.306;8.636;2023-03-05T04:59:16;100718.40;;;4.00;79.61
25944;BME280;13742;49.306;8.636;2023-03-05T05:00:17;100716.56;;;3.99;79.54
25944;BME280;13742;49.306;8.636;2023-03-05T05:01:16;100719.39;;;3.99;79.84
25944;BME280;13742;49.306;8.636;2023-03-05T05:02:16;100721.23;;;3.99;79.73
25944;BME280;13742;49.306;8.636;2023-03-05T05:03:16;100719.44;;;3.98;79.97
25944;BME280;13742;49.306;8.636;2023-03-05T05:04:16;100716.88;;;3.97;80.03
25944;BME280;13742;49.306;8.636;2023-03-05T05:05:18;100720.34;;;3.98;79.88
25944;BME280;13742;49.306;8.636;2023-03-05T05:06:16;100717.66;;;3.96;80.03
25944;BME280;13742;49.306;8.636;2023-03-05T05:07:16;100718.20;;;3.96;80.09
25944;BME280;13742;49.306;8.636;2023-03-05T05:08:16;100723.39;;;3.96;79.82
25944;BME280;13742;49.306;8.636;2023-03-05T05:09:16;100719.03;;;3.95;79.89
25944;BME280;13742;49.306;8.636;2023-03-05T05:10:16;100717.28;;;3.94;79.88
25944;BME280;13742;49.306;8.636;2023-03-05T05:11:17;100716.63;;;3.94;79.75
25944;BME280;13742;49.306;8.636;2023-03-05T05:12:16;100717.56;;;3.95;79.68
25944;BME280;13742;49.306;8.636;2023-03-05T05:13:16;100711.73;;;3.94;79.78
25944;BME280;13742;49.306;8.636;2023-03-05T05:14:16;100712.36;;;3.93;79.67
25944;BME280;13742;49.306;8.636;2023-03-05T05:15:17;100712.36;;;3.93;79.62
25944;BME280;13742;49.306;8.636;2023-03-05T05:16:17;100710.57;;;3.92;79.70
25944;BME280;13742;49.306;8.636;2023-03-05T05:17:16;100710.57;;;3.92;79.66
25944;BME280;13742;49.306;8.636;2023-03-05T05:18:17;100708.57;;;3.92;79.72
25944;BME280;13742;49.306;8.636;2023-03-05T05:19:16;100709.14;;;3.92;79.63
25944;BME280;13742;49.306;8.636;2023-03-05T05:20:16;100709.55;;;3.92;79.72
25944;BME280;13742;49.306;8.636;2023-03-05T05:21:17;100705.77;;;3.91;79.59
25944;BME280;13742;49.306;8.636;2023-03-05T05:22:16;100705.72;;;3.91;79.55
25944;BME280;13742;49.306;8.636;2023-03-05T05:23:17;100705.13;;;3.90;79.63
25944;BME280;13742;49.306;8.636;2023-03-05T05:24:16;100703.38;;;3.89;79.77
25944;BME280;13742;49.306;8.636;2023-03-05T05:25:16;100699.87;;;3.89;79.65